createdAt,value
2022-12-03T08:18:33.838Z,0.64
2022-12-03T08:21:07.617Z,0.68
2022-12-03T08:23:38.387Z,0.76
2022-12-03T08:26:19.091Z,0.89
2022-12-03T08:28:49.911Z,1.04
2022-12-03T08:31:28.000Z,1.19
2022-12-03T08:34:18.854Z,1.33
2022-12-03T08:36:51.916Z,1.45
2022-12-03T08:39:33.229Z,1.55
2022-12-03T08:42:31.206Z,1.57
2022-12-03T08:45:39.644Z,1.55
2022-12-03T08:48:29.490Z,1.59
2022-12-03T08:51:02.425Z,1.66
2022-12-03T08:53:38.344Z,1.72
2022-12-03T08:56:21.366Z,1.73
2022-12-03T08:58:56.881Z,1.72
2022-12-03T09:01:42.822Z,1.73
2022-12-03T09:04:30.322Z,1.78
2022-12-03T09:07:01.225Z,1.79
2022-12-03T09:09:31.970Z,1.80
2022-12-03T09:12:03.215Z,1.76
2022-12-03T09:14:33.930Z,1.76
2022-12-03T09:17:04.898Z,1.78
2022-12-03T09:19:35.664Z,1.78
2022-12-03T09:22:06.569Z,1.80
2022-12-03T09:24:37.418Z,1.82
2022-12-03T09:27:08.135Z,1.85
2022-12-03T09:29:38.887Z,1.87
2022-12-03T09:32:13.669Z,1.87
2022-12-03T09:34:48.511Z,1.90
2022-12-03T09:37:19.278Z,1.85
2022-12-03T09:39:49.883Z,1.82
2022-12-03T09:42:20.802Z,1.80
2022-12-03T09:44:51.836Z,1.79
2022-12-03T09:47:23.869Z,1.77
2022-12-03T09:49:56.737Z,1.78
2022-12-03T09:52:30.224Z,1.83
2022-12-03T09:55:02.466Z,1.85
2022-12-03T09:57:33.709Z,1.88
2022-12-03T10:00:07.985Z,1.92
2022-12-03T10:03:02.801Z,1.91
2022-12-03T10:05:34.314Z,1.89
2022-12-03T10:08:09.343Z,1.90
2022-12-03T10:10:42.937Z,1.91
2022-12-03T10:13:25.766Z,1.90
2022-12-03T10:15:59.560Z,1.88
2022-12-03T10:18:30.791Z,1.88
2022-12-03T10:21:02.457Z,1.91
2022-12-03T10:23:33.726Z,1.93
2022-12-03T10:26:05.549Z,1.95
2022-12-03T10:28:38.265Z,1.99
2022-12-03T10:31:11.461Z,2.01
2022-12-03T10:33:44.875Z,2.05
2022-12-03T10:36:18.414Z,2.09
2022-12-03T10:39:06.654Z,2.12
2022-12-03T10:41:37.852Z,2.14
2022-12-03T10:44:25.513Z,2.09
2022-12-03T10:47:10.802Z,2.05
2022-12-03T10:49:42.539Z,2.07
2022-12-03T10:52:25.706Z,2.05
2022-12-03T10:54:57.258Z,2.03
2022-12-03T10:57:28.084Z,2.01
2022-12-03T10:59:59.241Z,1.97
2022-12-03T11:02:30.075Z,1.93
2022-12-03T11:05:00.980Z,1.93
2022-12-03T11:07:32.075Z,1.93
2022-12-03T11:10:06.175Z,1.91
2022-12-03T11:12:37.102Z,1.89
2022-12-03T11:15:15.541Z,1.87
2022-12-03T11:17:49.227Z,1.88
2022-12-03T11:21:04.574Z,1.92
2022-12-03T11:24:10.530Z,1.97
2022-12-03T11:27:16.030Z,2.04
2022-12-03T11:29:55.356Z,2.08
2022-12-03T11:32:41.948Z,2.09
2022-12-03T11:35:16.613Z,2.13
2022-12-03T11:37:47.561Z,2.13
2022-12-03T11:40:39.410Z,2.14
2022-12-03T11:43:12.441Z,2.23
2022-12-03T11:45:44.371Z,2.29
2022-12-03T11:48:16.996Z,2.30
2022-12-03T11:50:53.097Z,2.30
2022-12-03T11:53:26.845Z,2.27
2022-12-03T11:56:09.083Z,2.28
2022-12-03T11:58:43.542Z,2.29
2022-12-03T12:01:15.962Z,2.31
2022-12-03T12:03:49.876Z,2.37
2022-12-03T12:06:22.290Z,2.42
2022-12-03T12:09:03.920Z,2.46
2022-12-03T12:11:38.791Z,2.51
2022-12-03T12:14:11.302Z,2.51
2022-12-03T12:16:50.943Z,2.50
2022-12-03T12:19:33.831Z,2.49
2022-12-03T12:22:29.604Z,2.48
2022-12-03T12:25:02.351Z,2.52
2022-12-03T12:27:39.347Z,2.56
2022-12-03T12:30:14.761Z,2.61
2022-12-03T12:32:48.906Z,2.60
2022-12-03T12:35:23.233Z,2.62
2022-12-03T12:37:59.770Z,2.63
2022-12-03T12:40:34.110Z,2.64
2022-12-03T12:43:14.198Z,2.64
2022-12-03T12:45:47.585Z,2.61
2022-12-03T12:48:24.659Z,2.59
2022-12-03T12:51:07.772Z,2.58
2022-12-03T12:53:40.214Z,2.58
2022-12-03T12:56:21.116Z,2.57
2022-12-03T12:58:52.057Z,2.59
2022-12-03T13:01:27.276Z,2.61
2022-12-03T13:03:59.601Z,2.65
2022-12-03T13:06:31.912Z,2.63
2022-12-03T13:09:02.723Z,2.62
2022-12-03T13:11:42.252Z,2.58
2022-12-03T13:14:18.808Z,2.57
2022-12-03T13:16:51.523Z,2.52
2022-12-03T13:19:27.313Z,2.51
2022-12-03T13:22:01.214Z,2.52
2022-12-03T13:24:37.110Z,2.51
2022-12-03T13:27:26.656Z,2.50
2022-12-03T13:30:01.157Z,2.48
2022-12-03T13:32:34.784Z,2.43
2022-12-03T13:35:16.248Z,2.41
2022-12-03T13:37:47.537Z,2.43
2022-12-03T13:40:25.379Z,2.45
2022-12-03T13:42:56.065Z,2.44
2022-12-03T13:45:36.508Z,2.46
2022-12-03T13:48:21.097Z,2.48
2022-12-03T13:50:52.700Z,2.51
2022-12-03T13:53:26.814Z,2.53
2022-12-03T13:56:05.501Z,2.55
2022-12-03T13:58:36.211Z,2.57
2022-12-03T14:01:07.333Z,2.59
2022-12-03T14:03:38.404Z,2.63
2022-12-03T14:06:09.734Z,2.58
2022-12-03T14:08:40.634Z,2.62
2022-12-03T14:11:32.570Z,2.62
2022-12-03T14:14:03.964Z,2.64
2022-12-03T14:16:34.792Z,2.64
2022-12-03T14:19:06.199Z,2.63
2022-12-03T14:21:36.911Z,2.64
2022-12-03T14:24:08.922Z,2.64
2022-12-03T14:26:39.651Z,2.61
2022-12-03T14:29:10.428Z,2.65
2022-12-03T14:31:41.373Z,2.64
2022-12-03T14:34:12.085Z,2.61
2022-12-03T14:36:43.158Z,2.57
2022-12-03T14:39:13.806Z,2.54
2022-12-03T14:42:01.883Z,2.52
2022-12-03T14:44:32.536Z,2.49
2022-12-03T14:47:03.249Z,2.44
2022-12-03T14:49:33.895Z,2.41
2022-12-03T14:52:07.478Z,2.39
2022-12-03T14:54:42.467Z,2.31
2022-12-03T14:57:15.347Z,2.37
2022-12-03T14:59:47.158Z,2.36
2022-12-03T15:02:17.937Z,2.35
2022-12-03T15:04:48.768Z,2.35
2022-12-03T15:07:19.433Z,2.32
2022-12-03T15:09:50.683Z,2.31
2022-12-03T15:12:21.366Z,2.31
2022-12-03T15:14:52.575Z,2.33
2022-12-03T15:17:30.942Z,2.34
2022-12-03T15:20:02.341Z,2.34
2022-12-03T15:22:33.046Z,2.35
2022-12-03T15:25:03.922Z,2.32
2022-12-03T15:27:34.729Z,2.29
2022-12-03T15:30:06.328Z,2.28
2022-12-03T15:32:36.955Z,2.25
2022-12-03T15:35:13.572Z,2.22
2022-12-03T15:37:44.253Z,2.20
2022-12-03T15:40:16.054Z,2.17
2022-12-03T15:42:46.718Z,2.13
2022-12-03T15:45:18.351Z,2.10
2022-12-03T15:47:49.053Z,2.10
2022-12-03T15:50:20.235Z,2.13
2022-12-03T15:52:50.951Z,2.15
2022-12-03T15:55:21.750Z,2.16
2022-12-03T15:57:52.560Z,2.16
2022-12-03T16:00:24.507Z,2.19
2022-12-03T16:02:55.233Z,2.18
2022-12-03T16:05:25.959Z,2.15
2022-12-03T16:07:56.883Z,2.15
2022-12-03T16:10:27.731Z,2.17
2022-12-03T16:12:58.427Z,2.18
2022-12-03T16:15:29.588Z,2.18
2022-12-03T16:18:00.272Z,2.16
2022-12-03T16:20:31.215Z,2.15
2022-12-03T16:23:02.029Z,2.12
2022-12-03T16:25:32.835Z,2.07
2022-12-03T16:28:03.485Z,2.02
2022-12-03T16:30:34.315Z,2.03
2022-12-03T16:33:05.149Z,2.01
2022-12-03T16:35:35.931Z,2.02
2022-12-03T16:38:06.679Z,2.03
2022-12-03T16:40:37.502Z,2.03
2022-12-03T16:43:09.674Z,2.04
2022-12-03T16:46:02.502Z,2.03
2022-12-03T16:48:33.595Z,2.06
2022-12-03T16:51:04.244Z,2.06
2022-12-03T16:53:35.255Z,2.03
2022-12-03T16:56:06.358Z,2.01
2022-12-03T16:58:37.041Z,2.04
2022-12-03T17:01:10.530Z,2.08
2022-12-03T17:03:42.407Z,2.12
2022-12-03T17:06:13.408Z,2.14
2022-12-03T17:08:48.969Z,2.13
2022-12-03T17:11:20.494Z,2.10
2022-12-03T17:13:51.243Z,2.07
2022-12-03T17:16:21.991Z,2.09
2022-12-03T17:18:52.776Z,2.08
2022-12-03T17:21:23.559Z,2.08
2022-12-03T17:23:54.341Z,2.08
2022-12-03T17:26:24.942Z,2.08
2022-12-03T17:28:55.635Z,2.08
2022-12-03T17:31:26.419Z,2.06
2022-12-03T17:33:57.879Z,2.08
2022-12-03T17:36:28.945Z,2.10
2022-12-03T17:38:59.888Z,2.09
2022-12-03T17:41:30.595Z,2.10
2022-12-03T17:44:03.613Z,2.10
2022-12-03T17:46:38.338Z,2.09
2022-12-03T17:49:09.091Z,2.08
2022-12-03T17:51:39.917Z,2.06
2022-12-03T17:54:10.723Z,2.07
2022-12-03T17:56:43.625Z,2.06
2022-12-03T17:59:15.014Z,2.06
2022-12-03T18:01:45.735Z,2.07
2022-12-03T18:04:16.797Z,2.08
2022-12-03T18:06:47.602Z,2.10
2022-12-03T18:09:18.327Z,2.11
2022-12-03T18:11:49.072Z,2.09
2022-12-03T18:14:19.934Z,2.08
2022-12-03T18:16:50.784Z,2.11
2022-12-03T18:19:21.796Z,2.13
2022-12-03T18:21:52.460Z,2.13
2022-12-03T18:24:23.706Z,2.15
2022-12-03T18:26:54.396Z,2.18
2022-12-03T18:29:25.115Z,2.20
2022-12-03T18:31:55.861Z,2.20
2022-12-03T18:34:26.666Z,2.20
2022-12-03T18:36:57.734Z,2.22
2022-12-03T18:39:35.519Z,2.19
2022-12-03T18:42:18.031Z,2.19
2022-12-03T18:44:51.550Z,2.19
2022-12-03T18:47:24.575Z,2.20
2022-12-03T18:49:59.791Z,2.18
2022-12-03T18:52:30.598Z,2.19
2022-12-03T18:55:01.259Z,2.21
2022-12-03T18:57:31.899Z,2.22
2022-12-03T19:00:02.725Z,2.21
2022-12-03T19:03:01.335Z,2.14
2022-12-03T19:05:24.119Z,2.16
2022-12-03T19:07:56.581Z,2.16
2022-12-03T19:10:28.316Z,2.16
2022-12-03T19:12:58.958Z,2.15
2022-12-03T19:15:29.646Z,2.16
2022-12-03T19:18:00.476Z,2.19
2022-12-03T19:20:31.277Z,2.20
2022-12-03T19:23:02.007Z,2.18
2022-12-03T19:25:33.256Z,2.16
2022-12-03T19:28:04.239Z,2.16
2022-12-03T19:30:34.929Z,2.17
2022-12-03T19:33:05.679Z,2.20
2022-12-03T19:35:41.698Z,2.22
2022-12-03T19:38:12.604Z,2.22
2022-12-03T19:40:43.637Z,2.23
2022-12-03T19:43:14.382Z,2.25
2022-12-03T19:45:45.102Z,2.25
2022-12-03T19:48:16.185Z,2.24
2022-12-03T19:51:13.535Z,2.22
2022-12-03T19:53:47.582Z,2.24
2022-12-03T19:56:20.026Z,2.24
2022-12-03T19:58:55.074Z,2.25
2022-12-03T20:01:27.846Z,2.27
2022-12-03T20:04:00.449Z,2.30
2022-12-03T20:06:33.250Z,2.34
2022-12-03T20:09:07.186Z,2.34
2022-12-03T20:11:38.252Z,2.34
2022-12-03T20:14:14.578Z,2.32
2022-12-03T20:16:46.149Z,2.32
2022-12-03T20:19:18.587Z,2.33
2022-12-03T20:21:49.664Z,2.32
2022-12-03T20:24:20.632Z,2.31
2022-12-03T20:26:51.307Z,2.32
2022-12-03T20:29:21.978Z,2.31
2022-12-03T20:31:52.745Z,2.31
2022-12-03T20:34:23.612Z,2.30
2022-12-03T20:36:54.589Z,2.27
2022-12-03T20:39:25.442Z,2.27
2022-12-03T20:41:59.326Z,2.24
2022-12-03T20:44:30.066Z,2.23
2022-12-03T20:47:00.902Z,2.25
2022-12-03T20:49:31.785Z,2.25
2022-12-03T20:52:04.574Z,2.24
2022-12-03T20:54:35.566Z,2.23
2022-12-03T20:57:06.486Z,2.24
2022-12-03T20:59:37.430Z,2.26
2022-12-03T21:02:08.177Z,2.28
2022-12-03T21:04:39.052Z,2.32
2022-12-03T21:07:09.661Z,2.33
2022-12-03T21:09:40.091Z,2.34
2022-12-03T21:12:11.090Z,2.34
2022-12-03T21:14:41.756Z,2.33
2022-12-03T21:17:12.635Z,2.31
2022-12-03T21:19:43.364Z,2.29
2022-12-03T21:22:14.307Z,2.31
2022-12-03T21:24:45.236Z,2.32
2022-12-03T21:27:21.387Z,2.29
2022-12-03T21:29:52.953Z,2.24
2022-12-03T21:32:26.874Z,2.22
2022-12-03T21:34:57.767Z,2.22
2022-12-03T21:37:28.590Z,2.23
2022-12-03T21:39:59.568Z,2.24
2022-12-03T21:42:35.756Z,2.23
2022-12-03T21:45:17.067Z,2.55
2022-12-03T21:47:50.363Z,2.78
2022-12-03T21:50:21.436Z,2.71
2022-12-03T21:52:52.734Z,2.67
2022-12-03T21:55:23.361Z,2.61
2022-12-03T21:57:54.129Z,2.56
2022-12-03T22:00:26.689Z,2.52
2022-12-03T22:02:59.724Z,2.49
2022-12-03T22:05:30.708Z,2.44
2022-12-03T22:08:01.335Z,2.39
2022-12-03T22:10:32.104Z,2.35
2022-12-03T22:13:03.186Z,2.36
2022-12-03T22:15:34.002Z,2.35
2022-12-03T22:18:04.911Z,2.34
2022-12-03T22:20:35.616Z,2.32
2022-12-03T22:23:06.349Z,2.28
2022-12-03T22:25:37.097Z,2.28
2022-12-03T22:28:07.899Z,2.26
2022-12-03T22:30:41.610Z,2.23
2022-12-03T22:33:12.462Z,2.21
2022-12-03T22:35:43.184Z,2.21
2022-12-03T22:38:13.965Z,2.25
2022-12-03T22:40:44.797Z,2.27
2022-12-03T22:43:15.664Z,2.29
2022-12-03T22:45:46.392Z,2.29
2022-12-03T22:48:17.311Z,2.30
2022-12-03T22:50:49.216Z,2.30
2022-12-03T22:53:21.188Z,2.28
2022-12-03T22:55:59.246Z,2.27
2022-12-03T22:58:31.421Z,2.27
2022-12-03T23:01:03.053Z,2.27
2022-12-03T23:03:34.199Z,2.27
2022-12-03T23:06:11.863Z,2.25
2022-12-03T23:08:42.556Z,2.24
2022-12-03T23:11:13.335Z,2.24
2022-12-03T23:13:44.359Z,2.24
2022-12-03T23:16:17.886Z,2.25
2022-12-03T23:18:49.310Z,2.23
2022-12-03T23:21:28.948Z,2.23
2022-12-03T23:24:00.497Z,2.23
2022-12-03T23:26:31.423Z,2.22
2022-12-03T23:29:02.149Z,2.20
2022-12-03T23:31:34.857Z,2.21
2022-12-03T23:34:06.490Z,2.22
2022-12-03T23:36:37.628Z,2.23
2022-12-03T23:39:08.317Z,2.25
2022-12-03T23:41:40.792Z,2.26
2022-12-03T23:44:11.549Z,2.23
2022-12-03T23:46:42.758Z,2.23
2022-12-03T23:49:13.602Z,2.24
2022-12-03T23:51:44.419Z,2.24
2022-12-03T23:54:15.073Z,2.26
2022-12-03T23:56:46.013Z,2.29
2022-12-03T23:59:16.635Z,2.28
